This is the latest recevied weather packets stored in our database for station/object OE-11073. If no packets are shown the sender has not sent any weather packets the latest 10 day(s).
| Time | Temp. | Humidity | Pressure | Rain* | Wind** | Luminosity | Snow |
|---|---|---|---|---|---|---|---|
| 1787932510 | 25° C | 59% | - | 0 mm | - | 161 W/m² | - |
| 1787931683 | 25.56° C | 57% | - | 0 mm | - | 214 W/m² | - |
| 1787931310 | 25.56° C | 55% | - | 0 mm | - | 237 W/m² | - |
| 1787930710 | 27.78° C | 48% | - | 0 mm | - | 275 W/m² | - |
| 1787929883 | 28.33° C | 46% | - | 0 mm | - | 398 W/m² | - |
| 1787929509 | 28.89° C | 40% | - | 0 mm | - | 344 W/m² | - |
| 1787928909 | 30° C | 38% | - | 0 mm | - | 482 W/m² | - |
| 1787928083 | 31.11° C | 32% | - | 0 mm | - | 383 W/m² | - |
| 1787927709 | 32.22° C | 29% | - | 0 mm | - | 490 W/m² | - |
| 1787927109 | 30.56° C | 38% | - | 0 mm | - | 314 W/m² | - |
| 1787926283 | 30° C | 47% | - | 0 mm | - | 344 W/m² | - |
| 1787925910 | 31.11° C | 32% | - | 0 mm | - | 260 W/m² | - |
| 1787925310 | 30.56° C | 42% | - | 0 mm | - | 390 W/m² | - |
| 1787924483 | 29.44° C | 56% | - | 0 mm | - | 360 W/m² | - |
| 1787924110 | 30.56° C | 36% | - | 0 mm | - | 291 W/m² | - |
| 1787923510 | 31.11° C | 31% | - | 0 mm | - | 260 W/m² | - |
| 1787922681 | 31.11° C | 31% | - | 0 mm | - | 383 W/m² | - |
| 1787922309 | 31.67° C | 31% | - | 0 mm | - | 344 W/m² | - |
| 1787921710 | 32.22° C | 28% | - | 0 mm | - | 398 W/m² | - |
| 1787920882 | 32.78° C | 30% | - | 0 mm | - | 589 W/m² | - |
| 1787920510 | 32.22° C | 28% | - | 0 mm | - | 627 W/m² | - |
| 1787919910 | 32.22° C | 28% | - | 0 mm | - | 643 W/m² | - |
| 1787919083 | 31.67° C | 27% | - | 0 mm | - | 451 W/m² | - |
| 1787918709 | 32.22° C | 25% | - | 0 mm | - | 551 W/m² | - |
| 1787918109 | 32.78° C | 26% | - | 0 mm | - | 803 W/m² | - |
* Rain latest hour (hover to see other rain measurements)
** Current wind speed in m/s (hover to see current wind gust speed)